createdAt,value
2023-02-06T00:00:45.520Z,100.00
2023-02-06T00:03:11.811Z,100.00
2023-02-06T00:05:38.355Z,100.00
2023-02-06T00:08:07.060Z,100.00
2023-02-06T00:10:34.032Z,100.00
2023-02-06T00:13:00.641Z,100.00
2023-02-06T00:15:27.114Z,100.00
2023-02-06T00:17:53.566Z,100.00
2023-02-06T00:20:20.073Z,100.00
2023-02-06T00:22:46.446Z,100.00
2023-02-06T00:25:12.862Z,100.00
2023-02-06T00:27:39.198Z,100.00
2023-02-06T00:30:06.456Z,100.00
2023-02-06T00:32:34.798Z,100.00
2023-02-06T00:35:01.266Z,100.00
2023-02-06T00:37:27.718Z,100.00
2023-02-06T00:39:54.125Z,100.00
2023-02-06T00:42:20.661Z,100.00
2023-02-06T00:44:47.045Z,100.00
2023-02-06T00:47:13.814Z,100.00
2023-02-06T00:49:40.189Z,100.00
2023-02-06T00:52:06.620Z,100.00
2023-02-06T00:54:32.981Z,100.00
2023-02-06T00:56:59.338Z,100.00
2023-02-06T00:59:25.774Z,100.00
2023-02-06T01:01:52.196Z,100.00
2023-02-06T01:04:18.661Z,100.00
2023-02-06T01:06:45.045Z,100.00
2023-02-06T01:09:11.455Z,100.00
2023-02-06T01:11:37.883Z,100.00
2023-02-06T01:14:04.346Z,100.00
2023-02-06T01:16:30.728Z,100.00
2023-02-06T01:18:57.152Z,100.00
2023-02-06T01:21:25.172Z,100.00
2023-02-06T01:23:53.913Z,100.00
2023-02-06T01:26:24.140Z,100.00
2023-02-06T01:28:50.626Z,100.00
2023-02-06T01:31:20.352Z,100.00
2023-02-06T01:33:47.885Z,100.00
2023-02-06T01:36:15.303Z,100.00
2023-02-06T01:38:42.431Z,100.00
2023-02-06T01:41:10.791Z,100.00
2023-02-06T01:43:42.591Z,100.00
2023-02-06T01:46:09.712Z,100.00
2023-02-06T01:48:53.537Z,100.00
2023-02-06T01:51:24.571Z,100.00
2023-02-06T01:53:59.906Z,100.00
2023-02-06T01:56:29.917Z,100.00
2023-02-06T01:59:00.164Z,100.00
2023-02-06T02:01:26.622Z,100.00
2023-02-06T02:03:59.608Z,100.00
2023-02-06T02:06:27.649Z,100.00
2023-02-06T02:08:58.236Z,100.00
2023-02-06T02:11:30.372Z,100.00
2023-02-06T02:13:57.174Z,100.00
2023-02-06T02:16:40.464Z,100.00
2023-02-06T02:19:37.212Z,100.00
2023-02-06T02:22:51.421Z,100.00
2023-02-06T02:25:39.399Z,100.00
2023-02-06T02:28:30.629Z,100.00
2023-02-06T02:31:25.694Z,100.00
2023-02-06T02:34:08.473Z,100.00
2023-02-06T02:36:57.335Z,100.00
2023-02-06T02:39:46.667Z,100.00
2023-02-06T02:42:17.015Z,100.00
2023-02-06T02:44:53.220Z,100.00
2023-02-06T02:47:23.390Z,100.00
2023-02-06T02:49:50.388Z,100.00
2023-02-06T02:52:16.807Z,100.00
2023-02-06T02:54:43.171Z,100.00
2023-02-06T02:57:14.742Z,100.00
2023-02-06T02:59:45.444Z,100.00
2023-02-06T03:02:27.532Z,100.00
2023-02-06T03:04:59.528Z,100.00
2023-02-06T03:07:43.922Z,100.00
2023-02-06T03:10:19.741Z,100.00
2023-02-06T03:12:58.237Z,100.00
2023-02-06T03:15:35.888Z,100.00
2023-02-06T03:18:16.527Z,100.00
2023-02-06T03:20:46.432Z,100.00
2023-02-06T03:23:16.916Z,100.00
2023-02-06T03:25:46.390Z,100.00
2023-02-06T03:28:27.406Z,100.00
2023-02-06T03:30:56.796Z,100.00
2023-02-06T03:33:28.645Z,100.00
2023-02-06T03:35:57.640Z,100.00
2023-02-06T03:38:24.819Z,100.00
2023-02-06T03:40:53.363Z,100.00
2023-02-06T03:43:23.625Z,100.00
2023-02-06T03:45:56.036Z,100.00
2023-02-06T03:48:29.726Z,100.00
2023-02-06T03:50:59.328Z,100.00
2023-02-06T03:53:26.563Z,100.00
2023-02-06T03:55:59.666Z,100.00
2023-02-06T03:58:26.261Z,100.00
2023-02-06T04:00:53.196Z,100.00
2023-02-06T04:03:21.413Z,100.00
2023-02-06T04:05:47.845Z,100.00
2023-02-06T04:08:14.213Z,100.00
2023-02-06T04:10:40.565Z,100.00
2023-02-06T04:13:06.937Z,100.00
2023-02-06T04:15:33.534Z,100.00
2023-02-06T04:18:01.604Z,100.00
2023-02-06T04:20:29.618Z,100.00
2023-02-06T04:22:56.708Z,100.00
2023-02-06T04:25:23.191Z,100.00
2023-02-06T04:27:50.084Z,100.00
2023-02-06T04:30:17.871Z,100.00
2023-02-06T04:32:44.411Z,100.00
2023-02-06T04:35:10.804Z,100.00
2023-02-06T04:37:37.660Z,100.00
2023-02-06T04:40:04.694Z,100.00
2023-02-06T04:42:31.106Z,100.00
2023-02-06T04:44:57.516Z,100.00
2023-02-06T04:47:23.898Z,100.00
2023-02-06T04:49:50.412Z,100.00
2023-02-06T04:52:16.767Z,100.00
2023-02-06T04:54:43.202Z,100.00
2023-02-06T04:57:09.556Z,100.00
2023-02-06T04:59:35.914Z,100.00
2023-02-06T05:02:02.380Z,100.00
2023-02-06T05:04:28.786Z,100.00
2023-02-06T05:06:55.231Z,100.00
2023-02-06T05:09:21.648Z,100.00
2023-02-06T05:11:48.034Z,100.00
2023-02-06T05:14:14.390Z,100.00
2023-02-06T05:16:40.810Z,100.00
2023-02-06T05:19:07.256Z,100.00
2023-02-06T05:21:33.695Z,100.00
2023-02-06T05:24:00.312Z,100.00
2023-02-06T05:26:26.721Z,100.00
2023-02-06T05:28:53.188Z,100.00
2023-02-06T05:31:20.289Z,100.00
2023-02-06T05:33:51.863Z,100.00
2023-02-06T05:36:20.362Z,100.00
2023-02-06T05:38:47.235Z,100.00
2023-02-06T05:41:13.819Z,100.00
2023-02-06T05:43:40.457Z,100.00
2023-02-06T05:46:07.038Z,100.00
2023-02-06T05:48:34.766Z,100.00
2023-02-06T05:51:01.720Z,100.00
2023-02-06T05:53:28.150Z,100.00
2023-02-06T05:55:54.544Z,100.00
2023-02-06T05:58:21.221Z,100.00
2023-02-06T06:00:47.655Z,100.00
2023-02-06T06:03:14.184Z,100.00
2023-02-06T06:05:41.094Z,100.00
2023-02-06T06:08:07.462Z,100.00
2023-02-06T06:10:33.910Z,100.00
2023-02-06T06:13:00.344Z,100.00
2023-02-06T06:15:26.769Z,100.00
2023-02-06T06:17:53.116Z,100.00
2023-02-06T06:20:19.583Z,100.00
2023-02-06T06:22:45.908Z,100.00
2023-02-06T06:25:12.318Z,100.00
2023-02-06T06:27:39.190Z,100.00
2023-02-06T06:30:06.056Z,100.00
2023-02-06T06:32:32.414Z,100.00
2023-02-06T06:34:58.831Z,100.00
2023-02-06T06:37:25.209Z,100.00
2023-02-06T06:39:51.636Z,100.00
2023-02-06T06:42:18.075Z,100.00
2023-02-06T06:44:44.487Z,100.00
2023-02-06T06:47:10.919Z,100.00
2023-02-06T06:49:37.385Z,100.00
2023-02-06T06:52:07.005Z,100.00
2023-02-06T06:54:35.282Z,100.00
2023-02-06T06:57:01.735Z,100.00
2023-02-06T06:59:28.173Z,100.00
2023-02-06T07:01:54.642Z,100.00
2023-02-06T07:04:21.377Z,100.00
2023-02-06T07:06:47.770Z,100.00
2023-02-06T07:09:14.588Z,100.00
2023-02-06T07:11:41.393Z,100.00
2023-02-06T07:14:08.597Z,100.00
2023-02-06T07:16:34.985Z,100.00
2023-02-06T07:19:01.615Z,100.00
2023-02-06T07:21:28.072Z,100.00
2023-02-06T07:23:54.465Z,100.00
2023-02-06T07:26:21.039Z,100.00
2023-02-06T07:28:49.670Z,100.00
2023-02-06T07:31:16.363Z,100.00
2023-02-06T07:33:42.882Z,100.00
2023-02-06T07:36:14.891Z,100.00
2023-02-06T07:38:41.339Z,100.00
2023-02-06T07:41:08.260Z,100.00
2023-02-06T07:43:34.692Z,100.00
2023-02-06T07:46:03.658Z,100.00
2023-02-06T07:48:30.786Z,100.00
2023-02-06T07:51:04.111Z,100.00
2023-02-06T07:53:30.557Z,100.00
2023-02-06T07:55:56.928Z,100.00
2023-02-06T07:58:23.376Z,100.00
2023-02-06T08:00:49.882Z,100.00
2023-02-06T08:03:16.376Z,100.00
2023-02-06T08:05:42.744Z,100.00
2023-02-06T08:08:10.632Z,100.00
2023-02-06T08:10:40.052Z,100.00
2023-02-06T08:13:07.402Z,100.00
2023-02-06T08:15:34.155Z,100.00
2023-02-06T08:18:00.812Z,100.00
2023-02-06T08:20:27.224Z,100.00
2023-02-06T08:22:54.512Z,100.00
2023-02-06T08:25:23.748Z,100.00
2023-02-06T08:27:57.334Z,100.00
2023-02-06T08:30:24.072Z,100.00
2023-02-06T08:32:50.626Z,100.00
2023-02-06T08:35:17.143Z,100.00
2023-02-06T08:37:44.052Z,100.00
2023-02-06T08:40:11.659Z,100.00
2023-02-06T08:42:38.812Z,100.00
2023-02-06T08:45:05.757Z,100.00
2023-02-06T08:47:32.161Z,100.00
2023-02-06T08:49:59.308Z,100.00
2023-02-06T08:52:27.190Z,100.00
2023-02-06T08:54:53.537Z,100.00
2023-02-06T08:57:20.347Z,100.00
2023-02-06T08:59:47.354Z,100.00
2023-02-06T09:02:13.840Z,100.00
2023-02-06T09:04:42.703Z,100.00
2023-02-06T09:07:09.152Z,100.00
2023-02-06T09:09:35.644Z,100.00
2023-02-06T09:12:03.790Z,100.00
2023-02-06T09:14:31.084Z,100.00
2023-02-06T09:16:58.335Z,100.00
2023-02-06T09:19:25.917Z,100.00
2023-02-06T09:21:52.575Z,100.00
2023-02-06T09:24:19.145Z,100.00
2023-02-06T09:26:59.038Z,100.00
2023-02-06T09:29:28.820Z,100.00
2023-02-06T09:31:57.254Z,100.00
2023-02-06T09:34:26.188Z,100.00
2023-02-06T09:36:57.869Z,100.00
2023-02-06T09:39:25.348Z,100.00
2023-02-06T09:41:55.553Z,100.00
2023-02-06T09:44:43.942Z,100.00
2023-02-06T09:47:30.150Z,100.00
2023-02-06T09:50:07.892Z,100.00
2023-02-06T09:52:37.407Z,100.00
2023-02-06T09:55:14.209Z,100.00
2023-02-06T09:57:52.653Z,100.00
2023-02-06T10:00:34.678Z,100.00
2023-02-06T10:03:39.923Z,100.00
2023-02-06T10:06:33.939Z,100.00
2023-02-06T10:09:05.826Z,100.00
2023-02-06T10:11:56.711Z,100.00
2023-02-06T10:14:44.049Z,100.00
2023-02-06T10:17:23.394Z,100.00
2023-02-06T10:20:17.922Z,100.00
2023-02-06T10:23:06.644Z,100.00
2023-02-06T10:25:37.931Z,100.00
2023-02-06T10:28:31.829Z,100.00
2023-02-06T10:31:07.340Z,100.00
2023-02-06T10:33:54.866Z,100.00
2023-02-06T10:36:54.892Z,100.00
2023-02-06T10:39:40.139Z,100.00
2023-02-06T10:42:37.504Z,100.00
2023-02-06T10:45:41.014Z,100.00
2023-02-06T10:48:19.307Z,100.00
2023-02-06T10:50:56.507Z,100.00
2023-02-06T10:53:28.947Z,100.00
2023-02-06T10:56:00.268Z,100.00
2023-02-06T10:58:35.856Z,100.00
2023-02-06T11:01:13.920Z,100.00
2023-02-06T11:04:12.730Z,100.00
2023-02-06T11:06:42.520Z,100.00
2023-02-06T11:09:10.251Z,100.00
2023-02-06T11:11:40.042Z,100.00
2023-02-06T11:14:48.853Z,100.00
2023-02-06T11:17:18.539Z,100.00
2023-02-06T11:19:45.248Z,100.00
2023-02-06T11:22:15.637Z,100.00
2023-02-06T11:25:03.384Z,100.00
2023-02-06T11:27:33.550Z,100.00
2023-02-06T11:30:07.776Z,100.00
2023-02-06T11:32:41.412Z,100.00
2023-02-06T11:35:31.974Z,100.00
2023-02-06T11:38:21.254Z,100.00
2023-02-06T11:41:00.825Z,100.00
2023-02-06T11:43:31.830Z,100.00
2023-02-06T11:46:17.498Z,100.00
2023-02-06T11:49:08.183Z,100.00
2023-02-06T11:51:54.132Z,100.00
2023-02-06T11:54:31.450Z,100.00
2023-02-06T11:57:10.302Z,100.00
2023-02-06T11:59:51.236Z,100.00
2023-02-06T12:02:26.081Z,100.00
2023-02-06T12:04:59.832Z,100.00
2023-02-06T12:07:35.553Z,100.00
2023-02-06T12:10:06.679Z,100.00
2023-02-06T12:12:42.918Z,100.00
2023-02-06T12:15:45.458Z,100.00
2023-02-06T12:18:22.090Z,100.00
2023-02-06T12:21:01.414Z,100.00
2023-02-06T12:23:50.169Z,100.00
2023-02-06T12:26:21.886Z,100.00
2023-02-06T12:28:48.249Z,100.00
2023-02-06T12:32:05.638Z,100.00
2023-02-06T12:34:54.880Z,100.00
2023-02-06T12:37:36.032Z,100.00
2023-02-06T12:40:02.543Z,100.00
2023-02-06T12:42:47.637Z,100.00
2023-02-06T12:46:10.425Z,100.00
2023-02-06T12:48:45.814Z,100.00
2023-02-06T12:51:25.841Z,100.00
2023-02-06T12:54:00.636Z,100.00
2023-02-06T12:56:34.056Z,98.41
2023-02-06T12:59:09.751Z,95.97
2023-02-06T13:01:45.593Z,99.14
2023-02-06T13:04:23.882Z,98.64
2023-02-06T13:06:56.529Z,98.79
2023-02-06T13:09:36.761Z,98.41
2023-02-06T13:12:11.570Z,99.17
2023-02-06T13:14:44.584Z,95.88
2023-02-06T13:17:19.430Z,95.93
2023-02-06T13:19:45.849Z,92.64
2023-02-06T13:22:13.367Z,87.43
2023-02-06T13:24:41.779Z,90.09
2023-02-06T13:27:08.125Z,86.99
2023-02-06T13:29:42.746Z,89.18
2023-02-06T13:32:12.320Z,87.45
2023-02-06T13:34:44.253Z,87.36
2023-02-06T13:37:26.019Z,85.20
2023-02-06T13:40:25.703Z,85.48
2023-02-06T13:43:07.585Z,84.94
2023-02-06T13:45:43.850Z,82.73
2023-02-06T13:48:38.247Z,81.18
2023-02-06T13:51:06.674Z,89.05
2023-02-06T13:54:11.128Z,83.04
2023-02-06T13:57:05.056Z,77.00
2023-02-06T13:59:55.569Z,81.98
2023-02-06T14:02:21.838Z,78.73
2023-02-06T14:04:49.960Z,80.76
2023-02-06T14:07:34.928Z,81.79
2023-02-06T14:10:31.866Z,81.54
2023-02-06T14:13:12.053Z,83.65
2023-02-06T14:15:52.080Z,80.39
2023-02-06T14:18:28.152Z,83.89
2023-02-06T14:21:09.174Z,80.98
2023-02-06T14:24:09.088Z,80.98
2023-02-06T14:27:03.526Z,77.29
2023-02-06T14:29:58.030Z,78.98
2023-02-06T14:32:48.932Z,78.51
2023-02-06T14:35:37.089Z,80.00
2023-02-06T14:38:27.868Z,81.07
2023-02-06T14:40:56.574Z,82.58
2023-02-06T14:43:25.405Z,78.36
2023-02-06T14:46:06.992Z,78.77
2023-02-06T14:48:44.132Z,81.33
2023-02-06T14:51:36.737Z,79.71
2023-02-06T14:54:31.484Z,81.80
2023-02-06T14:57:00.626Z,83.31
2023-02-06T14:59:27.342Z,83.63
2023-02-06T15:01:55.964Z,83.22
2023-02-06T15:04:23.594Z,84.47
2023-02-06T15:07:02.142Z,87.51
2023-02-06T15:09:40.355Z,86.84
2023-02-06T15:12:23.770Z,86.63
2023-02-06T15:14:55.779Z,87.79
2023-02-06T15:17:24.151Z,86.53
2023-02-06T15:19:50.584Z,89.34
2023-02-06T15:22:23.862Z,88.33
2023-02-06T15:25:04.512Z,86.12
2023-02-06T15:27:33.843Z,87.70
2023-02-06T15:30:02.786Z,92.91
2023-02-06T15:32:38.579Z,88.38
2023-02-06T15:35:20.762Z,88.58
2023-02-06T15:37:47.456Z,90.39
2023-02-06T15:40:25.552Z,90.96
2023-02-06T15:42:53.268Z,92.07
2023-02-06T15:45:23.916Z,93.36
2023-02-06T15:47:52.318Z,94.29
2023-02-06T15:50:23.775Z,93.65
2023-02-06T15:52:50.427Z,93.56
2023-02-06T15:55:35.681Z,97.14
2023-02-06T15:58:04.430Z,96.60
2023-02-06T16:00:35.880Z,96.36
2023-02-06T16:03:07.957Z,98.24
2023-02-06T16:05:41.462Z,97.30
2023-02-06T16:08:16.242Z,98.04
2023-02-06T16:10:45.363Z,100.00
2023-02-06T16:13:19.669Z,100.00
2023-02-06T16:16:04.832Z,100.00
2023-02-06T16:18:34.675Z,100.00
2023-02-06T16:21:16.449Z,100.00
2023-02-06T16:23:50.035Z,100.00
2023-02-06T16:26:27.784Z,100.00
2023-02-06T16:28:56.983Z,100.00
2023-02-06T16:31:28.450Z,100.00
2023-02-06T16:33:56.875Z,100.00
2023-02-06T16:36:24.082Z,100.00
2023-02-06T16:39:02.738Z,100.00
2023-02-06T16:41:42.119Z,100.00
2023-02-06T16:44:13.663Z,100.00
2023-02-06T16:46:40.670Z,100.00
2023-02-06T16:49:19.892Z,100.00
2023-02-06T16:51:47.740Z,100.00
2023-02-06T16:54:27.380Z,100.00
2023-02-06T16:56:56.760Z,100.00
2023-02-06T16:59:23.684Z,100.00
2023-02-06T17:01:50.096Z,100.00
2023-02-06T17:04:16.494Z,100.00
2023-02-06T17:06:44.985Z,100.00
2023-02-06T17:09:17.213Z,100.00
2023-02-06T17:11:46.640Z,100.00
2023-02-06T17:14:13.112Z,100.00
2023-02-06T17:16:44.112Z,100.00
2023-02-06T17:19:14.623Z,100.00
2023-02-06T17:21:41.147Z,100.00
2023-02-06T17:24:08.908Z,100.00
2023-02-06T17:26:35.530Z,100.00
2023-02-06T17:29:01.915Z,100.00
2023-02-06T17:31:28.682Z,100.00
2023-02-06T17:33:55.230Z,100.00
2023-02-06T17:36:29.247Z,100.00
2023-02-06T17:38:58.843Z,100.00
2023-02-06T17:41:26.691Z,100.00
2023-02-06T17:43:53.205Z,100.00
2023-02-06T17:46:19.816Z,100.00
2023-02-06T17:48:46.253Z,100.00
2023-02-06T17:51:12.792Z,100.00
2023-02-06T17:53:39.295Z,100.00
2023-02-06T17:56:14.283Z,100.00
2023-02-06T17:58:41.745Z,100.00
2023-02-06T18:01:13.661Z,100.00
2023-02-06T18:03:41.332Z,100.00
2023-02-06T18:06:08.509Z,100.00
2023-02-06T18:08:34.971Z,100.00
2023-02-06T18:11:09.628Z,100.00
2023-02-06T18:13:36.126Z,100.00
2023-02-06T18:16:02.504Z,100.00
2023-02-06T18:18:31.313Z,100.00
2023-02-06T18:20:58.619Z,100.00
2023-02-06T18:23:25.967Z,100.00
2023-02-06T18:25:52.700Z,100.00
2023-02-06T18:28:19.928Z,100.00
2023-02-06T18:30:46.688Z,100.00
2023-02-06T18:33:13.645Z,100.00
2023-02-06T18:35:44.459Z,100.00
2023-02-06T18:38:12.017Z,100.00
2023-02-06T18:40:40.387Z,100.00
2023-02-06T18:43:08.133Z,100.00
2023-02-06T18:45:37.342Z,100.00
2023-02-06T18:48:06.038Z,100.00
2023-02-06T18:50:33.742Z,100.00
2023-02-06T18:53:00.387Z,100.00
2023-02-06T18:55:27.266Z,100.00
2023-02-06T18:57:53.711Z,100.00
2023-02-06T19:00:22.220Z,100.00
2023-02-06T19:02:49.160Z,100.00
2023-02-06T19:05:15.710Z,100.00
2023-02-06T19:07:42.322Z,100.00
2023-02-06T19:10:12.949Z,100.00
2023-02-06T19:12:39.804Z,100.00
2023-02-06T19:15:06.759Z,100.00
2023-02-06T19:17:33.219Z,100.00
2023-02-06T19:20:00.108Z,100.00
2023-02-06T19:22:27.046Z,100.00
2023-02-06T19:24:53.959Z,100.00
2023-02-06T19:27:21.476Z,100.00
2023-02-06T19:29:48.835Z,100.00
2023-02-06T19:32:15.224Z,100.00
2023-02-06T19:34:43.980Z,100.00
2023-02-06T19:37:10.930Z,100.00
2023-02-06T19:39:40.272Z,100.00
2023-02-06T19:42:15.480Z,100.00
2023-02-06T19:44:42.908Z,100.00
2023-02-06T19:47:10.245Z,100.00
2023-02-06T19:49:37.712Z,100.00
2023-02-06T19:52:04.344Z,100.00
2023-02-06T19:54:31.091Z,100.00
2023-02-06T19:56:57.663Z,100.00
2023-02-06T19:59:26.993Z,100.00
2023-02-06T20:01:58.803Z,100.00
2023-02-06T20:04:29.044Z,100.00
2023-02-06T20:06:55.840Z,100.00
2023-02-06T20:09:23.074Z,100.00
2023-02-06T20:11:50.106Z,100.00
2023-02-06T20:14:17.575Z,100.00
2023-02-06T20:16:44.949Z,100.00
2023-02-06T20:19:15.597Z,100.00
2023-02-06T20:21:51.639Z,100.00
2023-02-06T20:24:21.833Z,100.00
2023-02-06T20:26:50.730Z,100.00
2023-02-06T20:29:30.116Z,100.00
2023-02-06T20:31:57.832Z,100.00
2023-02-06T20:34:25.109Z,100.00
2023-02-06T20:36:52.499Z,100.00
2023-02-06T20:39:19.784Z,100.00
2023-02-06T20:41:46.348Z,100.00
2023-02-06T20:44:13.995Z,100.00
2023-02-06T20:46:41.180Z,100.00
2023-02-06T20:49:13.974Z,100.00
2023-02-06T20:51:40.944Z,100.00
2023-02-06T20:54:07.430Z,100.00
2023-02-06T20:56:34.480Z,100.00
2023-02-06T20:59:01.461Z,100.00
2023-02-06T21:01:30.470Z,100.00
2023-02-06T21:04:03.316Z,100.00
2023-02-06T21:06:30.826Z,100.00
2023-02-06T21:09:00.261Z,100.00
2023-02-06T21:11:40.387Z,100.00
2023-02-06T21:14:07.633Z,100.00
2023-02-06T21:16:35.365Z,100.00
2023-02-06T21:19:02.658Z,100.00
2023-02-06T21:21:29.545Z,100.00
2023-02-06T21:23:56.186Z,100.00
2023-02-06T21:26:24.018Z,100.00
2023-02-06T21:28:51.115Z,100.00
2023-02-06T21:31:33.302Z,100.00
2023-02-06T21:34:05.005Z,100.00
2023-02-06T21:36:31.972Z,100.00
2023-02-06T21:39:10.364Z,100.00
2023-02-06T21:41:41.820Z,100.00
2023-02-06T21:44:08.244Z,100.00
2023-02-06T21:46:34.787Z,100.00
2023-02-06T21:49:01.369Z,100.00
2023-02-06T21:51:28.082Z,100.00
2023-02-06T21:53:54.570Z,100.00
2023-02-06T21:56:26.647Z,100.00
2023-02-06T21:58:53.865Z,100.00
2023-02-06T22:01:26.850Z,100.00
2023-02-06T22:03:53.323Z,100.00
2023-02-06T22:06:20.312Z,100.00
2023-02-06T22:08:51.764Z,100.00
2023-02-06T22:11:26.662Z,100.00
2023-02-06T22:13:57.173Z,100.00
2023-02-06T22:16:24.767Z,100.00
2023-02-06T22:18:51.562Z,100.00
2023-02-06T22:21:20.821Z,100.00
2023-02-06T22:23:49.196Z,100.00
2023-02-06T22:26:18.035Z,100.00
2023-02-06T22:28:44.980Z,100.00
2023-02-06T22:31:17.162Z,100.00
2023-02-06T22:33:43.993Z,100.00
2023-02-06T22:36:12.683Z,100.00
2023-02-06T22:38:39.853Z,100.00
2023-02-06T22:41:08.863Z,100.00
2023-02-06T22:43:37.450Z,100.00
2023-02-06T22:46:05.317Z,100.00
2023-02-06T22:48:32.039Z,100.00
2023-02-06T22:51:09.799Z,100.00
2023-02-06T22:53:40.600Z,100.00
2023-02-06T22:56:35.018Z,100.00
2023-02-06T22:59:06.023Z,100.00
2023-02-06T23:01:36.373Z,100.00
2023-02-06T23:04:04.788Z,100.00
2023-02-06T23:06:33.513Z,100.00
2023-02-06T23:09:00.733Z,100.00
2023-02-06T23:11:28.205Z,100.00
2023-02-06T23:13:57.216Z,100.00
2023-02-06T23:16:24.036Z,100.00
2023-02-06T23:18:51.033Z,100.00
2023-02-06T23:21:20.668Z,100.00
2023-02-06T23:23:47.827Z,100.00
2023-02-06T23:26:15.906Z,100.00
2023-02-06T23:28:42.718Z,100.00
2023-02-06T23:31:10.262Z,100.00
2023-02-06T23:33:37.309Z,100.00
2023-02-06T23:36:10.524Z,100.00
2023-02-06T23:38:37.163Z,100.00
2023-02-06T23:41:19.148Z,100.00
2023-02-06T23:43:53.865Z,100.00
2023-02-06T23:46:20.818Z,100.00
2023-02-06T23:48:48.175Z,100.00
2023-02-06T23:51:15.565Z,100.00
2023-02-06T23:53:42.190Z,100.00
2023-02-06T23:56:13.575Z,100.00
2023-02-06T23:58:40.367Z,100.00
